sensor_id;sensor_type;location;lat;lon;timestamp;P1;durP1;ratioP1;P2;durP2;ratioP2
74670;SDS011;63196;39.564;2.628;2023-02-21T15:25:34;5.50;;;1.30;;
74670;SDS011;63196;39.564;2.628;2023-02-21T15:28:00;4.00;;;0.90;;
74670;SDS011;63196;39.564;2.628;2023-02-21T15:30:28;5.10;;;1.30;;
74670;SDS011;63196;39.564;2.628;2023-02-21T15:32:59;5.80;;;1.00;;
74670;SDS011;63196;39.564;2.628;2023-02-21T15:35:43;3.40;;;1.00;;
74670;SDS011;63196;39.564;2.628;2023-02-21T15:38:18;4.00;;;1.10;;
74670;SDS011;63196;39.564;2.628;2023-02-21T15:40:45;5.10;;;1.30;;
74670;SDS011;63196;39.564;2.628;2023-02-21T15:43:21;4.20;;;1.50;;
74670;SDS011;63196;39.564;2.628;2023-02-21T15:45:48;4.00;;;1.20;;
74670;SDS011;63196;39.564;2.628;2023-02-21T15:48:14;4.70;;;1.30;;
74670;SDS011;63196;39.564;2.628;2023-02-21T15:50:43;3.70;;;1.30;;
74670;SDS011;63196;39.564;2.628;2023-02-21T15:53:15;3.90;;;1.60;;
74670;SDS011;63196;39.564;2.628;2023-02-21T15:55:41;4.30;;;1.20;;
74670;SDS011;63196;39.564;2.628;2023-02-21T15:58:19;5.20;;;1.40;;
74670;SDS011;63196;39.564;2.628;2023-02-21T16:01:00;5.30;;;1.70;;
74670;SDS011;63196;39.564;2.628;2023-02-21T16:03:35;5.10;;;1.70;;
74670;SDS011;63196;39.564;2.628;2023-02-21T16:08:49;3.60;;;1.20;;
74670;SDS011;63196;39.564;2.628;2023-02-21T16:11:16;4.10;;;0.90;;
74670;SDS011;63196;39.564;2.628;2023-02-21T16:13:42;3.40;;;1.30;;
74670;SDS011;63196;39.564;2.628;2023-02-21T16:16:08;3.70;;;1.20;;
74670;SDS011;63196;39.564;2.628;2023-02-21T16:18:34;3.20;;;1.20;;
74670;SDS011;63196;39.564;2.628;2023-02-21T16:21:02;3.80;;;1.50;;
74670;SDS011;63196;39.564;2.628;2023-02-21T16:23:37;4.30;;;1.30;;
74670;SDS011;63196;39.564;2.628;2023-02-21T16:28:39;7.20;;;1.50;;
74670;SDS011;63196;39.564;2.628;2023-02-21T16:31:06;4.50;;;0.90;;
74670;SDS011;63196;39.564;2.628;2023-02-21T16:33:33;3.20;;;1.10;;
74670;SDS011;63196;39.564;2.628;2023-02-21T16:35:59;4.40;;;1.00;;
74670;SDS011;63196;39.564;2.628;2023-02-21T16:38:26;5.90;;;1.30;;
74670;SDS011;63196;39.564;2.628;2023-02-21T16:40:51;4.40;;;1.50;;
74670;SDS011;63196;39.564;2.628;2023-02-21T16:43:18;9.60;;;1.80;;
74670;SDS011;63196;39.564;2.628;2023-02-21T16:45:45;5.70;;;1.20;;
74670;SDS011;63196;39.564;2.628;2023-02-21T16:48:15;5.60;;;1.20;;
74670;SDS011;63196;39.564;2.628;2023-02-21T16:50:42;6.00;;;1.50;;
74670;SDS011;63196;39.564;2.628;2023-02-21T16:53:10;2.20;;;0.70;;
74670;SDS011;63196;39.564;2.628;2023-02-21T16:55:37;3.70;;;1.20;;
74670;SDS011;63196;39.564;2.628;2023-02-21T16:58:06;3.80;;;1.10;;
74670;SDS011;63196;39.564;2.628;2023-02-21T17:00:32;2.90;;;0.80;;
74670;SDS011;63196;39.564;2.628;2023-02-21T17:02:59;3.70;;;0.80;;
74670;SDS011;63196;39.564;2.628;2023-02-21T17:05:25;2.40;;;0.70;;
74670;SDS011;63196;39.564;2.628;2023-02-21T17:07:51;2.70;;;1.10;;
74670;SDS011;63196;39.564;2.628;2023-02-21T17:10:18;3.90;;;1.20;;
74670;SDS011;63196;39.564;2.628;2023-02-21T17:12:44;3.10;;;0.70;;
74670;SDS011;63196;39.564;2.628;2023-02-21T17:15:10;3.10;;;0.90;;
74670;SDS011;63196;39.564;2.628;2023-02-21T17:17:37;3.50;;;1.30;;
74670;SDS011;63196;39.564;2.628;2023-02-21T17:20:03;5.60;;;1.20;;
74670;SDS011;63196;39.564;2.628;2023-02-21T17:22:29;2.90;;;0.90;;
74670;SDS011;63196;39.564;2.628;2023-02-21T17:24:55;3.70;;;1.10;;
74670;SDS011;63196;39.564;2.628;2023-02-21T17:27:21;5.20;;;1.20;;
74670;SDS011;63196;39.564;2.628;2023-02-21T17:29:48;4.60;;;1.30;;
74670;SDS011;63196;39.564;2.628;2023-02-21T17:32:14;3.30;;;0.90;;
74670;SDS011;63196;39.564;2.628;2023-02-21T17:34:40;4.20;;;1.40;;
74670;SDS011;63196;39.564;2.628;2023-02-21T17:37:06;4.20;;;1.60;;
74670;SDS011;63196;39.564;2.628;2023-02-21T17:39:34;4.60;;;1.20;;
74670;SDS011;63196;39.564;2.628;2023-02-21T17:42:00;4.40;;;1.30;;
74670;SDS011;63196;39.564;2.628;2023-02-21T17:44:26;5.90;;;1.50;;
74670;SDS011;63196;39.564;2.628;2023-02-21T17:46:54;2.70;;;1.20;;
74670;SDS011;63196;39.564;2.628;2023-02-21T17:49:21;4.90;;;1.50;;
74670;SDS011;63196;39.564;2.628;2023-02-21T17:51:47;6.70;;;1.60;;
74670;SDS011;63196;39.564;2.628;2023-02-21T17:54:14;3.00;;;1.20;;
74670;SDS011;63196;39.564;2.628;2023-02-21T17:56:40;3.60;;;1.20;;
74670;SDS011;63196;39.564;2.628;2023-02-21T17:59:06;3.40;;;1.10;;
74670;SDS011;63196;39.564;2.628;2023-02-21T18:01:32;5.40;;;1.10;;
74670;SDS011;63196;39.564;2.628;2023-02-21T18:03:58;2.80;;;0.90;;
74670;SDS011;63196;39.564;2.628;2023-02-21T18:06:27;3.50;;;1.30;;
74670;SDS011;63196;39.564;2.628;2023-02-21T18:08:53;5.40;;;2.20;;
74670;SDS011;63196;39.564;2.628;2023-02-21T18:11:19;7.00;;;2.60;;
74670;SDS011;63196;39.564;2.628;2023-02-21T18:13:45;8.50;;;3.70;;
74670;SDS011;63196;39.564;2.628;2023-02-21T18:16:11;6.00;;;2.60;;
74670;SDS011;63196;39.564;2.628;2023-02-21T18:18:38;6.70;;;3.50;;
74670;SDS011;63196;39.564;2.628;2023-02-21T18:21:04;6.20;;;2.60;;
74670;SDS011;63196;39.564;2.628;2023-02-21T18:23:31;7.10;;;3.20;;
74670;SDS011;63196;39.564;2.628;2023-02-21T18:25:57;6.50;;;2.80;;
74670;SDS011;63196;39.564;2.628;2023-02-21T18:28:23;7.50;;;3.60;;
74670;SDS011;63196;39.564;2.628;2023-02-21T18:30:49;11.20;;;4.60;;
74670;SDS011;63196;39.564;2.628;2023-02-21T18:33:16;8.30;;;3.20;;
74670;SDS011;63196;39.564;2.628;2023-02-21T18:35:42;15.80;;;5.40;;
74670;SDS011;63196;39.564;2.628;2023-02-21T18:38:08;22.80;;;7.40;;
74670;SDS011;63196;39.564;2.628;2023-02-21T18:40:35;11.10;;;4.90;;
74670;SDS011;63196;39.564;2.628;2023-02-21T18:43:42;10.40;;;5.30;;
74670;SDS011;63196;39.564;2.628;2023-02-21T18:46:00;10.20;;;4.80;;
74670;SDS011;63196;39.564;2.628;2023-02-21T18:48:26;10.70;;;4.50;;
74670;SDS011;63196;39.564;2.628;2023-02-21T18:50:53;13.90;;;5.40;;
74670;SDS011;63196;39.564;2.628;2023-02-21T18:53:19;9.10;;;4.30;;
74670;SDS011;63196;39.564;2.628;2023-02-21T18:55:46;9.00;;;4.50;;
74670;SDS011;63196;39.564;2.628;2023-02-21T18:58:12;7.40;;;3.60;;
74670;SDS011;63196;39.564;2.628;2023-02-21T19:00:38;8.30;;;4.60;;
74670;SDS011;63196;39.564;2.628;2023-02-21T19:03:05;9.20;;;4.40;;
74670;SDS011;63196;39.564;2.628;2023-02-21T19:05:31;7.70;;;3.90;;
74670;SDS011;63196;39.564;2.628;2023-02-21T19:07:58;7.10;;;3.60;;
74670;SDS011;63196;39.564;2.628;2023-02-21T19:10:24;9.90;;;3.60;;
74670;SDS011;63196;39.564;2.628;2023-02-21T19:12:50;9.20;;;4.40;;
74670;SDS011;63196;39.564;2.628;2023-02-21T19:15:16;12.10;;;4.60;;
74670;SDS011;63196;39.564;2.628;2023-02-21T19:17:43;8.60;;;3.90;;
74670;SDS011;63196;39.564;2.628;2023-02-21T19:20:10;12.70;;;4.60;;
74670;SDS011;63196;39.564;2.628;2023-02-21T19:22:36;14.10;;;5.30;;
74670;SDS011;63196;39.564;2.628;2023-02-21T19:25:02;9.00;;;4.10;;
74670;SDS011;63196;39.564;2.628;2023-02-21T19:27:28;8.60;;;4.20;;
74670;SDS011;63196;39.564;2.628;2023-02-21T19:29:55;10.80;;;4.50;;
74670;SDS011;63196;39.564;2.628;2023-02-21T19:32:21;9.80;;;4.50;;
74670;SDS011;63196;39.564;2.628;2023-02-21T19:34:47;12.00;;;5.80;;
74670;SDS011;63196;39.564;2.628;2023-02-21T19:37:13;17.00;;;6.20;;
74670;SDS011;63196;39.564;2.628;2023-02-21T19:39:39;11.30;;;5.50;;
74670;SDS011;63196;39.564;2.628;2023-02-21T19:42:05;9.70;;;4.60;;
74670;SDS011;63196;39.564;2.628;2023-02-21T19:44:32;7.80;;;4.40;;
74670;SDS011;63196;39.564;2.628;2023-02-21T19:46:58;6.90;;;3.40;;
74670;SDS011;63196;39.564;2.628;2023-02-21T19:49:24;13.40;;;6.30;;
74670;SDS011;63196;39.564;2.628;2023-02-21T19:51:51;14.80;;;6.60;;
74670;SDS011;63196;39.564;2.628;2023-02-21T19:54:18;13.60;;;5.40;;
74670;SDS011;63196;39.564;2.628;2023-02-21T19:56:43;7.80;;;4.70;;
74670;SDS011;63196;39.564;2.628;2023-02-21T19:59:10;16.80;;;6.00;;
74670;SDS011;63196;39.564;2.628;2023-02-21T20:01:36;12.10;;;4.80;;
74670;SDS011;63196;39.564;2.628;2023-02-21T20:04:02;8.70;;;3.90;;
74670;SDS011;63196;39.564;2.628;2023-02-21T20:06:30;11.10;;;3.90;;
74670;SDS011;63196;39.564;2.628;2023-02-21T20:08:59;14.00;;;6.60;;
74670;SDS011;63196;39.564;2.628;2023-02-21T20:11:25;11.00;;;4.40;;
74670;SDS011;63196;39.564;2.628;2023-02-21T20:13:51;10.00;;;3.90;;
74670;SDS011;63196;39.564;2.628;2023-02-21T20:16:18;9.20;;;5.10;;
74670;SDS011;63196;39.564;2.628;2023-02-21T20:18:45;11.00;;;4.30;;
74670;SDS011;63196;39.564;2.628;2023-02-21T20:21:18;11.60;;;4.90;;
74670;SDS011;63196;39.564;2.628;2023-02-21T20:23:44;7.30;;;4.60;;
74670;SDS011;63196;39.564;2.628;2023-02-21T20:26:10;9.90;;;4.50;;
74670;SDS011;63196;39.564;2.628;2023-02-21T20:28:37;7.70;;;3.70;;
74670;SDS011;63196;39.564;2.628;2023-02-21T20:31:03;7.00;;;3.40;;
74670;SDS011;63196;39.564;2.628;2023-02-21T20:33:29;8.90;;;4.00;;
74670;SDS011;63196;39.564;2.628;2023-02-21T20:35:55;7.80;;;4.50;;
74670;SDS011;63196;39.564;2.628;2023-02-21T20:38:22;10.40;;;4.40;;
74670;SDS011;63196;39.564;2.628;2023-02-21T20:40:49;9.30;;;4.20;;
74670;SDS011;63196;39.564;2.628;2023-02-21T20:43:15;10.70;;;5.10;;
74670;SDS011;63196;39.564;2.628;2023-02-21T20:45:41;11.40;;;4.50;;
74670;SDS011;63196;39.564;2.628;2023-02-21T20:48:08;10.80;;;4.60;;
74670;SDS011;63196;39.564;2.628;2023-02-21T20:50:35;7.20;;;4.60;;
74670;SDS011;63196;39.564;2.628;2023-02-21T20:53:01;10.80;;;4.50;;
74670;SDS011;63196;39.564;2.628;2023-02-21T20:55:27;13.80;;;5.00;;
74670;SDS011;63196;39.564;2.628;2023-02-21T20:57:53;11.80;;;4.50;;
74670;SDS011;63196;39.564;2.628;2023-02-21T21:00:20;12.70;;;5.10;;
74670;SDS011;63196;39.564;2.628;2023-02-21T21:02:51;10.40;;;4.90;;
74670;SDS011;63196;39.564;2.628;2023-02-21T21:05:17;10.30;;;4.80;;
74670;SDS011;63196;39.564;2.628;2023-02-21T21:07:43;11.30;;;5.10;;
74670;SDS011;63196;39.564;2.628;2023-02-21T21:10:10;7.90;;;4.50;;
74670;SDS011;63196;39.564;2.628;2023-02-21T21:12:39;11.70;;;4.70;;
74670;SDS011;63196;39.564;2.628;2023-02-21T21:15:05;10.50;;;4.70;;
74670;SDS011;63196;39.564;2.628;2023-02-21T21:17:33;11.30;;;3.80;;
74670;SDS011;63196;39.564;2.628;2023-02-21T21:20:00;11.00;;;4.20;;
74670;SDS011;63196;39.564;2.628;2023-02-21T21:22:26;9.30;;;4.30;;
74670;SDS011;63196;39.564;2.628;2023-02-21T21:24:53;9.70;;;5.00;;
74670;SDS011;63196;39.564;2.628;2023-02-21T21:27:19;12.90;;;4.40;;
74670;SDS011;63196;39.564;2.628;2023-02-21T21:29:46;9.10;;;4.90;;
74670;SDS011;63196;39.564;2.628;2023-02-21T21:32:14;11.20;;;4.70;;
74670;SDS011;63196;39.564;2.628;2023-02-21T21:34:47;12.80;;;5.80;;
74670;SDS011;63196;39.564;2.628;2023-02-21T21:37:13;8.10;;;4.70;;
74670;SDS011;63196;39.564;2.628;2023-02-21T21:39:43;14.00;;;5.10;;
74670;SDS011;63196;39.564;2.628;2023-02-21T21:42:08;14.40;;;5.20;;
74670;SDS011;63196;39.564;2.628;2023-02-21T21:44:38;7.30;;;4.60;;
74670;SDS011;63196;39.564;2.628;2023-02-21T21:47:04;10.50;;;5.00;;
74670;SDS011;63196;39.564;2.628;2023-02-21T21:49:30;11.20;;;6.20;;
74670;SDS011;63196;39.564;2.628;2023-02-21T21:51:57;14.90;;;6.70;;
74670;SDS011;63196;39.564;2.628;2023-02-21T21:54:23;10.60;;;6.10;;
74670;SDS011;63196;39.564;2.628;2023-02-21T21:56:56;10.60;;;5.90;;
74670;SDS011;63196;39.564;2.628;2023-02-21T21:59:22;10.60;;;5.30;;
74670;SDS011;63196;39.564;2.628;2023-02-21T22:01:51;16.80;;;5.90;;
74670;SDS011;63196;39.564;2.628;2023-02-21T22:04:18;12.20;;;6.40;;
74670;SDS011;63196;39.564;2.628;2023-02-21T22:06:45;11.10;;;6.30;;
74670;SDS011;63196;39.564;2.628;2023-02-21T22:09:11;11.70;;;6.10;;
74670;SDS011;63196;39.564;2.628;2023-02-21T22:11:43;14.50;;;6.60;;
74670;SDS011;63196;39.564;2.628;2023-02-21T22:14:10;14.80;;;6.60;;
74670;SDS011;63196;39.564;2.628;2023-02-21T22:16:36;9.30;;;5.30;;
74670;SDS011;63196;39.564;2.628;2023-02-21T22:19:02;11.00;;;5.60;;
74670;SDS011;63196;39.564;2.628;2023-02-21T22:21:28;11.50;;;5.20;;
74670;SDS011;63196;39.564;2.628;2023-02-21T22:23:54;11.20;;;5.60;;
74670;SDS011;63196;39.564;2.628;2023-02-21T22:26:21;10.20;;;6.00;;
74670;SDS011;63196;39.564;2.628;2023-02-21T22:28:47;13.70;;;5.40;;
74670;SDS011;63196;39.564;2.628;2023-02-21T22:31:13;13.90;;;5.70;;
74670;SDS011;63196;39.564;2.628;2023-02-21T22:33:40;12.20;;;5.70;;
74670;SDS011;63196;39.564;2.628;2023-02-21T22:36:10;9.20;;;4.10;;
74670;SDS011;63196;39.564;2.628;2023-02-21T22:38:40;6.60;;;3.40;;
74670;SDS011;63196;39.564;2.628;2023-02-21T22:41:06;9.00;;;4.60;;
74670;SDS011;63196;39.564;2.628;2023-02-21T22:43:34;12.60;;;4.80;;
74670;SDS011;63196;39.564;2.628;2023-02-21T22:46:01;12.50;;;5.20;;
74670;SDS011;63196;39.564;2.628;2023-02-21T22:48:27;8.90;;;4.70;;
74670;SDS011;63196;39.564;2.628;2023-02-21T22:50:53;13.30;;;6.50;;
74670;SDS011;63196;39.564;2.628;2023-02-21T22:53:19;9.60;;;4.80;;
74670;SDS011;63196;39.564;2.628;2023-02-21T22:55:45;11.10;;;5.30;;
74670;SDS011;63196;39.564;2.628;2023-02-21T22:58:14;12.90;;;4.50;;
74670;SDS011;63196;39.564;2.628;2023-02-21T23:00:43;10.40;;;5.00;;
74670;SDS011;63196;39.564;2.628;2023-02-21T23:03:10;7.30;;;4.50;;
74670;SDS011;63196;39.564;2.628;2023-02-21T23:05:39;14.70;;;5.90;;
74670;SDS011;63196;39.564;2.628;2023-02-21T23:08:05;9.90;;;4.80;;
74670;SDS011;63196;39.564;2.628;2023-02-21T23:10:31;8.90;;;4.70;;
74670;SDS011;63196;39.564;2.628;2023-02-21T23:12:58;10.20;;;5.20;;
74670;SDS011;63196;39.564;2.628;2023-02-21T23:15:25;9.60;;;4.70;;
74670;SDS011;63196;39.564;2.628;2023-02-21T23:17:51;11.80;;;4.20;;
74670;SDS011;63196;39.564;2.628;2023-02-21T23:20:18;10.70;;;4.80;;
74670;SDS011;63196;39.564;2.628;2023-02-21T23:22:48;9.80;;;5.10;;
74670;SDS011;63196;39.564;2.628;2023-02-21T23:25:15;11.10;;;5.10;;
74670;SDS011;63196;39.564;2.628;2023-02-21T23:27:45;10.80;;;4.60;;
74670;SDS011;63196;39.564;2.628;2023-02-21T23:30:11;12.50;;;4.40;;
74670;SDS011;63196;39.564;2.628;2023-02-21T23:32:37;12.10;;;5.00;;
74670;SDS011;63196;39.564;2.628;2023-02-21T23:35:03;9.70;;;5.00;;
74670;SDS011;63196;39.564;2.628;2023-02-21T23:37:29;6.30;;;3.30;;
74670;SDS011;63196;39.564;2.628;2023-02-21T23:39:55;8.60;;;5.30;;
74670;SDS011;63196;39.564;2.628;2023-02-21T23:42:22;7.90;;;3.80;;
74670;SDS011;63196;39.564;2.628;2023-02-21T23:44:48;11.40;;;5.40;;
74670;SDS011;63196;39.564;2.628;2023-02-21T23:47:15;11.20;;;4.60;;
74670;SDS011;63196;39.564;2.628;2023-02-21T23:49:41;10.40;;;5.00;;
74670;SDS011;63196;39.564;2.628;2023-02-21T23:52:08;7.60;;;3.90;;
74670;SDS011;63196;39.564;2.628;2023-02-21T23:54:34;6.80;;;3.30;;
74670;SDS011;63196;39.564;2.628;2023-02-21T23:57:00;9.50;;;5.00;;
74670;SDS011;63196;39.564;2.628;2023-02-21T23:59:27;8.80;;;4.90;;
